Time;durP1;ratioP1;P1;durP2;ratioP2;P2;SDS_P1;SDS_P2;PMS_P1;PMS_P2;Temp;Humidity;BMP_temperature;BMP_pressure;BME280_temperature;BME280_humidity;BME280_pressure;Samples;Min_cycle;Max_cycle;Signal;HPM_P1;HPM_P2
2024/01/22 00:01:15;;;;;;;4.83;1.50;;;8.80;99.90;;;;;;5046444;28;20452;-86
2024/01/22 00:03:41;;;;;;;3.20;1.83;;;8.80;99.90;;;;;;5015319;28;20246;-85
2024/01/22 00:06:06;;;;;;;5.83;1.90;;;8.80;99.90;;;;;;5033908;28;20217;-86
2024/01/22 00:08:32;;;;;;;1.80;1.57;;;8.90;99.90;;;;;;5019826;28;20245;-86
2024/01/22 00:10:57;;;;;;;6.50;1.87;;;8.90;99.90;;;;;;5038015;28;20182;-85
2024/01/22 00:13:23;;;;;;;2.50;1.53;;;8.90;99.90;;;;;;5034776;28;20649;-86
2024/01/22 00:15:48;;;;;;;3.53;1.77;;;8.90;99.90;;;;;;5036440;28;20210;-89
2024/01/22 00:18:14;;;;;;;2.27;1.70;;;9.00;99.90;;;;;;5036100;28;20272;-86
2024/01/22 00:20:40;;;;;;;1.57;1.23;;;9.00;99.90;;;;;;5019959;28;20643;-85
2024/01/22 00:23:05;;;;;;;4.90;1.80;;;9.00;99.90;;;;;;5037045;28;20190;-87
2024/01/22 00:25:31;;;;;;;3.50;1.40;;;9.10;99.90;;;;;;5046542;28;20472;-87
2024/01/22 00:27:56;;;;;;;4.73;2.40;;;9.10;99.90;;;;;;5039792;28;20186;-85
2024/01/22 00:30:22;;;;;;;7.10;1.60;;;9.10;68.70;;;;;;5031105;28;20228;-85
2024/01/22 00:32:47;;;;;;;2.60;1.87;;;9.10;34.70;;;;;;5022839;28;20606;-86
2024/01/22 00:35:13;;;;;;;7.37;2.50;;;9.20;18.70;;;;;;5023922;28;20308;-85
2024/01/22 00:37:40;;;;;;;4.43;2.23;;;9.20;16.20;;;;;;5067848;23;20732;-85
2024/01/22 00:40:06;;;;;;;1.87;1.60;;;9.20;1.00;;;;;;5029148;28;20273;-84
2024/01/22 00:42:31;;;;;;;3.97;1.77;;;9.20;1.00;;;;;;5048589;28;20628;-86
2024/01/22 00:44:57;;;;;;;2.27;1.40;;;9.30;1.00;;;;;;5049792;28;20468;-86
2024/01/22 00:47:22;;;;;;;4.10;1.70;;;9.30;1.00;;;;;;5017714;28;20282;-87
2024/01/22 00:49:48;;;;;;;4.23;1.83;;;9.30;1.00;;;;;;5010377;28;20660;-87
2024/01/22 00:52:13;;;;;;;3.63;1.67;;;9.30;1.00;;;;;;5025756;28;20704;-87
2024/01/22 00:54:39;;;;;;;3.23;1.60;;;9.30;1.00;;;;;;5028256;28;20194;-87
2024/01/22 00:57:04;;;;;;;5.83;2.00;;;9.40;1.00;;;;;;5033775;28;20270;-87
2024/01/22 00:59:30;;;;;;;3.13;1.90;;;9.40;1.00;;;;;;5033279;28;20190;-87
2024/01/22 01:01:55;;;;;;;2.17;1.70;;;9.40;99.90;;;;;;5025818;28;20186;-86
2024/01/22 01:04:21;;;;;;;4.10;2.57;;;9.40;99.90;;;;;;5031166;28;20285;-86
2024/01/22 01:06:46;;;;;;;1.93;1.33;;;9.40;99.90;;;;;;5028942;28;20711;-87
2024/01/22 01:09:12;;;;;;;5.60;1.60;;;9.40;1.00;;;;;;5029523;28;20179;-87
2024/01/22 01:11:37;;;;;;;3.57;2.00;;;9.40;1.00;;;;;;5032167;28;20614;-87
2024/01/22 01:14:03;;;;;;;5.73;2.00;;;9.40;99.90;;;;;;5032386;28;20178;-87
2024/01/22 01:16:29;;;;;;;1.97;1.53;;;9.40;99.90;;;;;;5032640;28;20199;-86
2024/01/22 01:18:55;;;;;;;2.80;1.50;;;9.40;99.90;;;;;;5031611;28;20183;-86
2024/01/22 01:21:22;;;;;;;3.23;1.50;;;9.40;99.90;;;;;;5012122;28;20796;-86
2024/01/22 01:23:51;;;;;;;4.90;2.00;;;9.50;91.40;;;;;;5031726;28;20476;-87
2024/01/22 01:26:17;;;;;;;2.20;1.60;;;9.50;1.00;;;;;;5028354;28;20480;-87
2024/01/22 01:28:42;;;;;;;3.13;1.70;;;9.50;1.00;;;;;;5031235;28;20433;-87
2024/01/22 01:31:08;;;;;;;2.57;1.50;;;9.50;1.00;;;;;;5030256;28;20182;-87
2024/01/22 01:33:34;;;;;;;2.40;1.33;;;9.50;99.90;;;;;;5029803;28;20175;-86
2024/01/22 01:35:59;;;;;;;2.20;1.37;;;9.50;1.00;;;;;;5031774;28;20186;-87
2024/01/22 01:38:25;;;;;;;2.53;1.40;;;9.50;99.90;;;;;;5031579;28;20829;-87
2024/01/22 01:40:50;;;;;;;2.50;1.57;;;9.60;99.90;;;;;;5023918;28;20182;-87
2024/01/22 01:43:18;;;;;;;2.50;1.77;;;9.60;91.20;;;;;;5034325;28;20214;-83
2024/01/22 01:45:43;;;;;;;2.53;1.60;;;9.60;17.00;;;;;;5028021;28;20212;-87
2024/01/22 01:48:10;;;;;;;2.60;1.23;;;9.60;1.00;;;;;;5029756;28;20536;-86
2024/01/22 01:50:36;;;;;;;2.00;1.40;;;9.70;1.00;;;;;;5017371;28;20194;-87
2024/01/22 01:53:03;;;;;;;2.30;1.60;;;9.70;1.00;;;;;;5033255;28;20434;-88
2024/01/22 01:55:29;;;;;;;3.27;1.70;;;9.70;1.00;;;;;;5005471;28;20518;-87
2024/01/22 01:57:55;;;;;;;3.43;1.47;;;9.80;99.90;;;;;;5027153;28;20460;-86
2024/01/22 02:00:21;;;;;;;2.33;1.60;;;9.80;99.90;;;;;;5028893;28;20445;-86
2024/01/22 02:02:47;;;;;;;2.40;1.50;;;9.80;99.90;;;;;;5029729;28;20523;-86
2024/01/22 02:05:13;;;;;;;3.03;1.40;;;9.80;99.90;;;;;;5033745;28;20467;-87
2024/01/22 02:07:39;;;;;;;4.07;1.40;;;9.80;1.90;;;;;;5031926;28;20207;-86
2024/01/22 02:10:05;;;;;;;1.60;1.27;;;9.80;1.00;;;;;;5027250;28;20940;-87
2024/01/22 02:12:31;;;;;;;1.93;1.37;;;9.80;1.00;;;;;;5026750;28;20445;-87
2024/01/22 02:14:56;;;;;;;9.03;1.50;;;9.80;1.40;;;;;;5032713;28;20437;-87
2024/01/22 02:17:22;;;;;;;1.90;1.10;;;9.80;22.30;;;;;;5026398;28;20211;-87
2024/01/22 02:19:49;;;;;;;2.70;1.50;;;9.90;1.00;;;;;;5031050;28;20194;-87
2024/01/22 02:22:15;;;;;;;1.53;1.20;;;9.90;99.90;;;;;;5010710;28;20652;-87
2024/01/22 02:24:40;;;;;;;1.87;1.10;;;9.90;99.90;;;;;;5033299;28;20554;-86
2024/01/22 02:27:06;;;;;;;3.80;1.43;;;10.00;94.50;;;;;;5015671;28;20213;-87
2024/01/22 02:29:31;;;;;;;1.60;1.30;;;10.10;1.00;;;;;;5030042;28;20202;-87
2024/01/22 02:31:58;;;;;;;1.90;1.30;;;10.10;1.00;;;;;;5027065;28;20601;-87
2024/01/22 02:34:23;;;;;;;3.70;1.60;;;10.10;91.00;;;;;;5028704;28;20240;-87
2024/01/22 02:36:49;;;;;;;1.87;1.30;;;10.10;99.90;;;;;;5030327;28;20469;-86
2024/01/22 02:39:15;;;;;;;2.80;1.53;;;10.20;99.90;;;;;;5030832;28;20175;-86
2024/01/22 02:41:41;;;;;;;3.40;1.73;;;10.20;99.90;;;;;;5020117;28;20202;-87
2024/01/22 02:44:06;;;;;;;2.00;1.10;;;10.30;99.90;;;;;;5033796;28;20179;-87
2024/01/22 02:46:32;;;;;;;4.10;1.43;;;10.30;99.40;;;;;;5029915;28;20527;-87
2024/01/22 02:48:58;;;;;;;2.10;1.40;;;10.30;99.90;;;;;;5027153;28;20180;-85
2024/01/22 02:51:24;;;;;;;2.30;1.30;;;10.30;1.00;;;;;;5034334;28;20434;-85
2024/01/22 02:53:50;;;;;;;1.63;1.37;;;10.30;1.00;;;;;;5032095;28;20525;-86
2024/01/22 02:56:20;;;;;;;1.60;1.20;;;10.30;1.00;;;;;;5034829;28;21119;-86
2024/01/22 02:58:45;;;;;;;3.33;1.33;;;10.40;1.00;;;;;;5017750;28;20980;-84
2024/01/22 03:01:11;;;;;;;3.00;1.23;;;10.40;1.00;;;;;;5029883;28;20457;-85
2024/01/22 03:03:36;;;;;;;2.30;1.57;;;10.40;1.00;;;;;;5035697;28;20214;-87
2024/01/22 03:06:02;;;;;;;2.10;1.30;;;10.40;1.00;;;;;;5035832;28;20194;-86
2024/01/22 03:08:28;;;;;;;3.00;1.80;;;10.50;1.00;;;;;;5034576;28;20243;-87
2024/01/22 03:10:53;;;;;;;3.10;1.13;;;10.50;1.00;;;;;;5014111;28;20181;-87
2024/01/22 03:13:19;;;;;;;2.17;1.40;;;10.50;1.00;;;;;;5032044;28;20603;-87
2024/01/22 03:15:44;;;;;;;1.80;1.23;;;10.60;1.00;;;;;;5034876;28;20686;-87
2024/01/22 03:18:10;;;;;;;1.70;1.23;;;10.60;1.00;;;;;;5030847;28;20750;-86
2024/01/22 03:20:37;;;;;;;2.70;1.30;;;10.60;1.00;;;;;;5036722;28;20527;-87
2024/01/22 03:23:06;;;;;;;2.57;1.10;;;10.70;1.00;;;;;;5019356;28;20186;-86
2024/01/22 03:25:32;;;;;;;2.30;0.90;;;10.70;1.00;;;;;;5034329;28;20468;-88
2024/01/22 03:27:57;;;;;;;2.10;1.20;;;10.70;1.00;;;;;;5015453;28;20783;-87
2024/01/22 03:30:23;;;;;;;3.00;1.90;;;10.70;99.90;;;;;;5023220;28;20183;-87
2024/01/22 03:32:48;;;;;;;2.03;1.17;;;10.70;99.90;;;;;;5031526;28;20193;-87
2024/01/22 03:35:14;;;;;;;2.00;1.40;;;10.70;1.00;;;;;;5029136;28;20198;-88
2024/01/22 03:37:40;;;;;;;1.70;1.43;;;10.60;1.00;;;;;;5030428;28;20305;-87
2024/01/22 03:40:07;;;;;;;2.60;1.70;;;10.50;1.00;;;;;;5009262;28;20195;-86
2024/01/22 03:42:33;;;;;;;2.07;1.50;;;10.50;1.00;;;;;;5027294;28;20928;-87
2024/01/22 03:44:58;;;;;;;3.33;1.27;;;10.40;1.00;;;;;;5021587;28;20465;-83
2024/01/22 03:47:24;;;;;;;8.23;1.57;;;10.40;1.00;;;;;;5030200;28;20202;-86
2024/01/22 03:49:49;;;;;;;2.90;1.10;;;10.40;1.00;;;;;;5025408;28;20199;-86
2024/01/22 03:52:15;;;;;;;3.40;1.17;;;10.30;1.00;;;;;;5012013;28;20218;-86
2024/01/22 03:54:40;;;;;;;2.10;1.20;;;10.30;1.00;;;;;;5028128;28;20191;-87
2024/01/22 03:57:07;;;;;;;2.97;1.47;;;10.30;1.00;;;;;;5009456;28;20209;-87
2024/01/22 03:59:36;;;;;;;1.70;1.20;;;10.30;1.00;;;;;;5009698;28;20182;-87
2024/01/22 04:02:02;;;;;;;7.37;2.07;;;10.30;1.00;;;;;;5005191;28;20516;-86
2024/01/22 04:04:28;;;;;;;2.57;1.20;;;10.30;1.00;;;;;;5028060;28;20516;-87
2024/01/22 04:06:53;;;;;;;1.63;1.10;;;10.30;1.00;;;;;;5021961;28;20195;-85
2024/01/22 04:09:22;;;;;;;2.53;1.40;;;10.30;1.00;;;;;;5028436;28;20244;-86
2024/01/22 04:11:47;;;;;;;1.93;1.23;;;10.30;1.00;;;;;;5026208;28;20183;-85
2024/01/22 04:14:13;;;;;;;2.30;1.50;;;10.30;1.00;;;;;;5025552;28;20440;-86
2024/01/22 04:16:39;;;;;;;3.87;1.50;;;10.30;1.00;;;;;;5025917;28;20206;-85
2024/01/22 04:19:04;;;;;;;3.47;1.70;;;10.30;1.00;;;;;;5025134;28;20198;-87
2024/01/22 04:21:31;;;;;;;1.90;1.30;;;10.20;1.00;;;;;;5025231;28;20193;-85
2024/01/22 04:23:56;;;;;;;4.87;1.70;;;10.20;1.00;;;;;;5028947;28;20658;-86
2024/01/22 04:26:22;;;;;;;3.30;1.50;;;10.20;1.00;;;;;;5012926;28;20500;-86
2024/01/22 04:28:48;;;;;;;2.47;1.60;;;10.20;1.00;;;;;;5026531;28;20178;-86
2024/01/22 04:31:13;;;;;;;2.40;1.57;;;10.20;1.00;;;;;;5028789;28;20445;-86
2024/01/22 04:33:42;;;;;;;1.47;1.07;;;10.20;1.00;;;;;;5025034;28;20608;-86
2024/01/22 04:36:08;;;;;;;1.40;1.10;;;10.20;1.00;;;;;;5022303;28;20248;-87
2024/01/22 04:38:34;;;;;;;1.40;1.10;;;10.30;1.00;;;;;;5024633;28;20441;-86
2024/01/22 04:40:59;;;;;;;2.10;1.10;;;10.30;1.00;;;;;;5026099;28;20460;-86
2024/01/22 04:43:25;;;;;;;6.80;1.30;;;10.40;1.00;;;;;;5008481;28;20195;-86
2024/01/22 04:45:50;;;;;;;2.47;1.17;;;10.40;1.00;;;;;;5026309;28;20202;-86
2024/01/22 04:48:16;;;;;;;2.13;1.40;;;10.40;1.00;;;;;;5029937;28;20182;-87
2024/01/22 04:50:42;;;;;;;1.30;1.00;;;10.50;1.00;;;;;;5032675;28;20240;-86
2024/01/22 04:53:07;;;;;;;1.70;1.10;;;10.50;1.00;;;;;;5015949;28;20608;-84
2024/01/22 04:55:33;;;;;;;2.10;1.37;;;10.60;1.00;;;;;;5024508;28;20238;-84
2024/01/22 04:57:58;;;;;;;2.57;1.07;;;10.70;1.00;;;;;;5029172;28;20203;-84
2024/01/22 05:00:24;;;;;;;1.40;0.90;;;10.80;1.00;;;;;;5033679;28;20187;-85
2024/01/22 05:02:49;;;;;;;2.80;0.93;;;10.90;1.00;;;;;;5028479;28;20199;-84
2024/01/22 05:05:15;;;;;;;2.40;0.80;;;10.90;1.00;;;;;;5036042;28;20210;-83
2024/01/22 05:07:41;;;;;;;1.30;1.07;;;11.00;1.00;;;;;;5017229;28;20707;-83
2024/01/22 05:10:13;;;;;;;3.37;0.93;;;11.00;1.00;;;;;;5034702;28;20507;-84
2024/01/22 05:12:39;;;;;;;3.30;1.20;;;11.00;1.00;;;;;;5016650;28;20251;-85
2024/01/22 05:15:05;;;;;;;2.90;1.10;;;11.00;1.00;;;;;;5030639;28;20440;-86
2024/01/22 05:17:32;;;;;;;1.80;0.77;;;11.00;1.00;;;;;;5013586;28;20472;-85
2024/01/22 05:19:58;;;;;;;1.80;1.30;;;11.00;1.00;;;;;;5033917;28;20942;-85
2024/01/22 05:22:24;;;;;;;1.20;1.10;;;11.00;1.00;;;;;;5017857;28;20532;-86
2024/01/22 05:24:49;;;;;;;2.63;1.00;;;10.90;1.00;;;;;;5028523;28;20559;-86
2024/01/22 05:27:15;;;;;;;1.30;0.70;;;11.00;1.00;;;;;;5016312;28;20692;-86
2024/01/22 05:29:40;;;;;;;1.90;0.80;;;11.00;1.00;;;;;;5031450;28;20175;-86
2024/01/22 05:32:06;;;;;;;1.63;0.90;;;11.00;1.00;;;;;;5035178;28;20667;-86
2024/01/22 05:34:32;;;;;;;1.17;0.80;;;11.00;1.00;;;;;;5014204;28;20210;-87
2024/01/22 05:36:58;;;;;;;4.07;1.30;;;11.10;1.00;;;;;;5033201;28;20500;-87
2024/01/22 05:39:23;;;;;;;1.03;0.60;;;11.10;1.00;;;;;;5033825;28;20214;-86
2024/01/22 05:41:49;;;;;;;2.90;0.60;;;11.10;1.00;;;;;;5015094;28;20695;-86
2024/01/22 05:44:17;;;;;;;3.33;1.30;;;11.20;1.00;;;;;;5034394;28;20198;-86
2024/01/22 05:46:43;;;;;;;1.50;0.80;;;11.20;1.00;;;;;;5032019;28;20215;-86
2024/01/22 05:49:10;;;;;;;1.87;0.83;;;11.30;99.90;;;;;;5011203;28;20614;-86
2024/01/22 05:51:36;;;;;;;2.70;0.60;;;11.30;99.90;;;;;;5025225;28;20191;-85
2024/01/22 05:54:02;;;;;;;1.10;0.87;;;11.40;99.90;;;;;;5027477;28;20434;-87
2024/01/22 05:56:28;;;;;;;1.00;0.60;;;11.40;99.90;;;;;;5013472;28;20464;-86
2024/01/22 05:58:54;;;;;;;1.73;0.70;;;11.40;99.90;;;;;;5027843;28;20188;-86
2024/01/22 06:01:20;;;;;;;2.90;0.90;;;11.40;99.90;;;;;;5029106;28;20619;-86
2024/01/22 06:03:46;;;;;;;2.40;0.80;;;11.40;99.90;;;;;;5012821;28;21004;-87
2024/01/22 06:06:15;;;;;;;1.37;0.60;;;11.50;99.90;;;;;;5027028;28;20507;-87
2024/01/22 06:08:44;;;;;;;1.57;0.60;;;11.50;99.90;;;;;;5031700;28;20282;-87
2024/01/22 06:11:17;;;;;;;0.90;0.60;;;11.50;99.90;;;;;;5015058;28;20829;-87
2024/01/22 06:13:43;;;;;;;1.00;0.80;;;11.50;99.90;;;;;;5026162;28;20437;-87
2024/01/22 06:16:12;;;;;;;1.10;0.70;;;11.50;99.90;;;;;;5013949;28;20597;-87
2024/01/22 06:18:39;;;;;;;2.17;0.60;;;11.50;99.90;;;;;;5028953;28;20445;-86
2024/01/22 06:21:06;;;;;;;1.47;0.80;;;11.50;99.90;;;;;;5028824;28;20545;-86
2024/01/22 06:23:32;;;;;;;1.40;0.80;;;11.50;99.90;;;;;;5011900;28;20438;-87
2024/01/22 06:25:58;;;;;;;1.80;1.03;;;11.50;99.90;;;;;;5015712;28;20457;-86
2024/01/22 06:28:24;;;;;;;1.47;0.83;;;11.50;99.90;;;;;;5031882;28;21057;-87
2024/01/22 06:30:51;;;;;;;1.27;0.70;;;11.50;99.90;;;;;;5031858;28;20525;-86
2024/01/22 06:33:18;;;;;;;1.27;0.77;;;11.50;99.90;;;;;;5033740;28;20444;-87
2024/01/22 06:35:44;;;;;;;1.50;0.90;;;11.50;99.90;;;;;;5034718;28;20440;-86
2024/01/22 06:38:10;;;;;;;1.13;0.80;;;11.50;99.90;;;;;;5031885;28;20472;-86
2024/01/22 06:40:35;;;;;;;1.73;0.77;;;11.50;99.90;;;;;;5029857;28;20786;-87
2024/01/22 06:43:01;;;;;;;1.70;0.70;;;11.50;99.90;;;;;;5032909;28;20608;-85
2024/01/22 06:45:26;;;;;;;3.17;0.70;;;11.60;99.90;;;;;;5010337;28;20583;-86
2024/01/22 06:47:52;;;;;;;1.30;0.83;;;11.60;99.90;;;;;;5032590;28;20704;-86
2024/01/22 06:50:18;;;;;;;5.03;0.70;;;11.60;99.90;;;;;;5029154;28;20178;-86
2024/01/22 06:52:45;;;;;;;2.03;0.90;;;11.60;99.90;;;;;;5026918;28;20628;-85
2024/01/22 06:55:11;;;;;;;1.40;0.73;;;11.60;99.90;;;;;;5028133;28;20495;-86
2024/01/22 06:57:37;;;;;;;1.00;0.60;;;11.60;99.90;;;;;;5012389;28;20465;-85
2024/01/22 07:00:09;;;;;;;2.00;1.30;;;11.60;99.90;;;;;;5011513;28;20463;-85
2024/01/22 07:02:35;;;;;;;1.10;0.70;;;11.70;99.90;;;;;;5023638;28;20190;-85
2024/01/22 07:05:04;;;;;;;1.77;0.80;;;11.70;99.90;;;;;;5030439;28;20465;-86
2024/01/22 07:07:29;;;;;;;1.30;0.90;;;11.70;99.90;;;;;;5031983;28;20461;-86
2024/01/22 07:09:56;;;;;;;1.83;0.70;;;11.70;99.90;;;;;;5014895;28;20447;-86
2024/01/22 07:12:22;;;;;;;1.23;0.90;;;11.70;99.90;;;;;;5030354;28;20189;-86
2024/01/22 07:14:48;;;;;;;2.30;0.90;;;11.70;99.90;;;;;;5032505;28;20978;-87
2024/01/22 07:17:15;;;;;;;1.40;0.90;;;11.70;99.90;;;;;;5026263;28;20464;-85
2024/01/22 07:19:41;;;;;;;4.13;1.20;;;11.60;1.00;;;;;;5031083;28;20187;-84
2024/01/22 07:22:07;;;;;;;2.60;1.20;;;11.60;1.00;;;;;;5032071;28;20533;-87
2024/01/22 07:24:32;;;;;;;1.37;1.10;;;11.60;99.90;;;;;;5026121;28;20464;-85
2024/01/22 07:26:58;;;;;;;3.73;1.00;;;11.60;99.90;;;;;;5029753;28;20194;-86
2024/01/22 07:29:24;;;;;;;2.10;1.00;;;11.70;99.90;;;;;;5025520;28;20656;-85
2024/01/22 07:31:52;;;;;;;1.10;0.80;;;11.70;99.90;;;;;;5027159;28;20186;-86
2024/01/22 07:34:20;;;;;;;1.30;0.90;;;11.60;1.00;;;;;;5012023;28;20476;-84
2024/01/22 07:36:54;;;;;;;1.30;0.70;;;11.50;1.00;;;;;;5028451;28;20492;-87
2024/01/22 07:39:25;;;;;;;1.93;1.10;;;11.40;1.00;;;;;;5011988;28;20861;-86
2024/01/22 07:41:51;;;;;;;1.53;0.60;;;11.40;1.00;;;;;;5010575;28;20441;-86
2024/01/22 07:44:22;;;;;;;2.03;0.80;;;11.30;1.00;;;;;;5007346;28;21181;-87
2024/01/22 07:46:51;;;;;;;1.30;0.77;;;11.30;1.00;;;;;;5024159;28;20206;-85
2024/01/22 07:49:26;;;;;;;1.20;0.70;;;11.30;1.00;;;;;;5027150;28;20504;-87
2024/01/22 07:52:04;;;;;;;1.27;0.90;;;11.30;1.00;;;;;;5022254;28;20445;-86
2024/01/22 07:54:54;;;;;;;1.90;0.80;;;11.30;1.00;;;;;;5009079;28;22005;-87
2024/01/22 07:57:21;;;;;;;1.00;0.70;;;11.30;1.00;;;;;;5027578;28;20927;-87
2024/01/22 08:03:52;;;;;;;1.37;0.90;;;11.40;1.00;;;;;;5022531;28;20437;-87
2024/01/22 08:06:37;;;;;;;2.47;1.00;;;11.40;1.00;;;;;;5009718;28;20480;-87
2024/01/22 08:09:11;;;;;;;2.00;1.00;;;11.40;1.00;;;;;;5029422;28;20497;-88
2024/01/22 08:11:41;;;;;;;1.40;1.00;;;11.40;1.00;;;;;;5014059;28;20987;-88
2024/01/22 08:14:29;;;;;;;1.00;0.70;;;11.40;1.00;;;;;;5020866;28;20425;-86
2024/01/22 08:17:03;;;;;;;1.80;0.80;;;11.40;1.00;;;;;;5027224;28;20537;-86
2024/01/22 08:19:37;;;;;;;1.67;1.00;;;11.50;1.00;;;;;;5003053;28;20442;-86
2024/01/22 08:22:08;;;;;;;5.23;0.90;;;11.50;1.00;;;;;;5008734;28;20440;-88
2024/01/22 08:24:43;;;;;;;5.80;0.90;;;11.60;1.00;;;;;;5009112;28;20437;-87
2024/01/22 08:30:08;;;;;;;1.00;0.70;;;11.80;99.90;;;;;;4950244;28;20452;-87
2024/01/22 08:38:34;;;;;;;1.17;0.77;;;11.80;99.90;;;;;;5098324;27;20354;-86
2024/01/22 08:41:36;;;;;;;1.60;0.80;;;11.80;99.90;;;;;;5072529;28;20434;-86
2024/01/22 08:44:08;;;;;;;1.70;0.80;;;11.80;99.90;;;;;;5048199;28;20969;-87
2024/01/22 08:46:37;;;;;;;1.97;1.20;;;11.80;99.90;;;;;;5056250;28;21015;-87
2024/01/22 08:50:54;;;;;;;1.57;0.90;;;11.90;99.90;;;;;;4916651;27;5283969;-86
2024/01/22 08:53:51;;;;;;;4.03;1.30;;;12.40;1.00;;;;;;5064565;28;20458;-88
2024/01/22 08:56:33;;;;;;;2.03;0.90;;;12.70;99.90;;;;;;5057105;28;20489;-87
2024/01/22 08:59:24;;;;;;;3.73;1.07;;;12.80;99.90;;;;;;5067640;28;20430;-87
2024/01/22 09:02:21;;;;;;;3.70;1.50;;;12.80;1.00;;;;;;5069256;28;20443;-87
2024/01/22 09:05:17;;;;;;;4.97;1.70;;;12.60;1.00;;;;;;5067999;28;20469;-87
2024/01/22 09:07:53;;;;;;;5.67;1.27;;;12.60;99.90;;;;;;5064532;28;20447;-89
2024/01/22 09:10:26;;;;;;;2.80;1.13;;;12.70;4.60;;;;;;5086482;28;20434;-87
2024/01/22 09:16:01;;;;;;;;;;;;;;;;;;;;;
2024/01/22 09:18:42;;;;;;;4.77;2.00;;;13.20;99.90;;;;;;5081930;28;20452;-88
2024/01/22 09:21:43;;;;;;;2.80;1.10;;;13.30;1.00;;;;;;5056636;28;20450;-88
2024/01/22 09:24:25;;;;;;;3.73;1.50;;;13.50;99.90;;;;;;5062967;28;20443;-88
2024/01/22 09:27:02;;;;;;;7.00;1.47;;;13.50;1.00;;;;;;5063729;28;20463;-87
2024/01/22 09:29:47;;;;;;;4.77;1.40;;;13.60;10.20;;;;;;5067136;28;20469;-87
2024/01/22 09:32:32;;;;;;;5.47;1.87;;;13.50;1.00;;;;;;5063459;28;20447;-87
2024/01/22 09:35:32;;;;;;;12.27;2.00;;;13.60;1.00;;;;;;5064124;28;20431;-89
2024/01/22 09:38:07;;;;;;;6.00;1.70;;;13.70;1.00;;;;;;5077242;28;20463;-88
2024/01/22 09:40:43;;;;;;;5.20;1.70;;;13.70;1.00;;;;;;5064431;28;20538;-88
2024/01/22 09:43:32;;;;;;;3.67;1.50;;;13.70;1.00;;;;;;5063882;28;20439;-88
2024/01/22 09:52:08;;;;;;;8.20;1.57;;;13.50;1.00;;;;;;5085873;28;20431;-89
2024/01/22 09:54:42;;;;;;;4.80;1.70;;;13.50;1.00;;;;;;5059000;28;20470;-87
2024/01/22 09:57:26;;;;;;;3.67;1.10;;;13.60;1.00;;;;;;5067113;28;20458;-87
2024/01/22 09:59:59;;;;;;;6.47;1.50;;;13.60;1.00;;;;;;5057601;28;20444;-87
2024/01/22 10:02:34;;;;;;;2.87;1.47;;;13.50;1.00;;;;;;5048639;28;20450;-84
2024/01/22 10:05:20;;;;;;;5.43;1.30;;;13.50;1.00;;;;;;5049853;28;20447;-86
2024/01/22 10:07:56;;;;;;;9.23;2.40;;;13.50;1.00;;;;;;5052867;28;20915;-87
2024/01/22 10:10:58;;;;;;;6.63;1.60;;;13.40;63.30;;;;;;5049598;28;20465;-86
2024/01/22 10:13:31;;;;;;;6.07;2.37;;;13.40;99.90;;;;;;5045671;28;20481;-85
2024/01/22 10:16:22;;;;;;;4.60;1.20;;;13.50;99.90;;;;;;5045985;28;21016;-86
2024/01/22 10:19:01;;;;;;;8.10;1.50;;;13.50;99.90;;;;;;5046923;28;20458;-88
2024/01/22 10:21:46;;;;;;;4.40;1.20;;;13.60;99.90;;;;;;5051450;28;20435;-88
2024/01/22 10:24:36;;;;;;;;;;;;;;;;;;;;;
2024/01/22 10:27:28;;;;;;;3.03;1.07;;;13.50;99.90;;;;;;5069291;28;20459;-85
2024/01/22 10:30:25;;;;;;;5.00;1.07;;;13.60;1.00;;;;;;5035376;28;20525;-87
2024/01/22 10:33:31;;;;;;;4.90;1.23;;;13.80;99.90;;;;;;5048802;28;20573;-86
2024/01/22 10:36:22;;;;;;;3.47;1.47;;;13.80;99.90;;;;;;5051016;28;20440;-87
2024/01/22 10:39:04;;;;;;;1.60;0.80;;;13.80;99.90;;;;;;5053337;28;20423;-87
2024/01/22 10:41:35;;;;;;;2.30;1.00;;;13.80;99.90;;;;;;5051253;28;20432;-86
2024/01/22 10:44:09;;;;;;;3.97;1.07;;;13.80;99.90;;;;;;5066043;28;20420;-86
2024/01/22 10:49:29;;;;;;;3.37;1.00;;;13.60;99.90;;;;;;5066770;28;20505;-86
2024/01/22 10:52:24;;;;;;;4.33;0.80;;;13.50;99.90;;;;;;5053761;28;20466;-86
2024/01/22 10:54:55;;;;;;;3.40;0.97;;;13.60;99.90;;;;;;5039837;28;20464;-86
2024/01/22 10:57:54;;;;;;;3.07;0.80;;;13.60;99.90;;;;;;5041598;28;20448;-88
2024/01/22 11:00:47;;;;;;;2.13;1.13;;;13.70;99.90;;;;;;5047603;28;20437;-87
2024/01/22 11:03:35;;;;;;;4.23;0.90;;;13.70;14.50;;;;;;5051940;28;20443;-85
2024/01/22 11:09:10;;;;;;;2.20;0.90;;;13.60;99.90;;;;;;5064610;28;20497;-86
2024/01/22 11:11:57;;;;;;;1.97;0.87;;;13.60;99.90;;;;;;5049169;28;21067;-86
2024/01/22 11:14:38;;;;;;;3.67;1.13;;;13.60;4.90;;;;;;5042018;28;20491;-86
2024/01/22 11:17:15;;;;;;;1.77;0.70;;;13.70;49.50;;;;;;5041147;28;20480;-85
2024/01/22 11:20:49;;;;;;;3.33;0.70;;;13.80;1.00;;;;;;5052360;28;20489;-87
2024/01/22 11:23:23;;;;;;;3.10;1.20;;;13.80;99.90;;;;;;4979227;28;20443;-87
2024/01/22 11:26:08;;;;;;;3.10;0.70;;;13.70;1.00;;;;;;5050510;28;20447;-89
2024/01/22 11:29:28;;;;;;;1.93;0.73;;;13.50;99.90;;;;;;5041377;28;20491;-86
2024/01/22 11:35:35;;;;;;;1.80;0.83;;;13.20;1.00;;;;;;5067500;28;20525;-84
2024/01/22 11:38:14;;;;;;;2.70;0.70;;;13.10;99.90;;;;;;5038417;28;21079;-85
2024/01/22 11:41:05;;;;;;;4.40;0.90;;;13.20;1.00;;;;;;5050360;28;21240;-85
2024/01/22 11:44:02;;;;;;;4.03;0.90;;;13.20;1.00;;;;;;5051983;28;20471;-85
2024/01/22 11:46:29;;;;;;;2.30;1.10;;;13.10;1.00;;;;;;5064589;28;20443;-84
2024/01/22 11:49:11;;;;;;;3.20;0.90;;;12.90;1.00;;;;;;5053224;28;20466;-86
2024/01/22 11:51:40;;;;;;;5.93;1.40;;;12.70;62.60;;;;;;5048283;28;20447;-87
2024/01/22 11:54:19;;;;;;;3.30;1.30;;;12.60;99.90;;;;;;5048928;28;20918;-85
2024/01/22 11:56:50;;;;;;;7.10;1.30;;;12.60;99.90;;;;;;5051160;28;20455;-85
2024/01/22 11:59:31;;;;;;;3.03;1.00;;;13.00;1.00;;;;;;5047864;28;20446;-86
2024/01/22 12:02:29;;;;;;;2.17;1.13;;;13.70;41.50;;;;;;5047173;28;20448;-86
2024/01/22 12:07:54;;;;;;;7.83;1.93;;;14.80;1.00;;;;;;5058723;28;20458;-88
2024/01/22 12:10:35;;;;;;;4.80;1.30;;;15.40;1.00;;;;;;5048151;28;21075;-86
2024/01/22 12:13:28;;;;;;;7.57;1.60;;;16.40;1.00;;;;;;5052482;28;20439;-86
2024/01/22 12:16:15;;;;;;;5.03;1.67;;;16.80;14.80;;;;;;5037009;28;20440;-87
2024/01/22 12:18:49;;;;;;;8.40;2.17;;;16.80;1.00;;;;;;5044576;28;20491;-86
2024/01/22 12:21:16;;;;;;;6.40;1.83;;;16.60;1.00;;;;;;5043247;28;20442;-85
2024/01/22 12:23:52;;;;;;;11.63;2.17;;;16.20;1.00;;;;;;5054656;28;20947;-86
2024/01/22 12:26:42;;;;;;;7.23;2.40;;;15.80;1.00;;;;;;5043536;28;20447;-86
2024/01/22 12:33:34;;;;;;;8.50;2.50;;;15.60;43.90;;;;;;5009803;28;20816;-85
2024/01/22 12:39:03;;;;;;;7.07;2.00;;;17.70;1.00;;;;;;5069450;22;20474;-86
2024/01/22 12:41:31;;;;;;;8.20;2.53;;;18.70;1.00;;;;;;5054339;22;20878;-83
2024/01/22 12:43:57;;;;;;;13.73;2.83;;;19.20;99.90;;;;;;5014494;28;20434;-82
2024/01/22 12:46:24;;;;;;;11.43;2.70;;;19.20;99.90;;;;;;5010594;28;20802;-83
2024/01/22 12:48:49;;;;;;;11.00;3.00;;;19.30;99.90;;;;;;5016448;28;20434;-84
2024/01/22 12:51:18;;;;;;;8.10;2.40;;;19.70;99.90;;;;;;5014412;28;20453;-82
2024/01/22 12:53:48;;;;;;;9.40;2.87;;;19.90;99.90;;;;;;5013825;28;20218;-83
2024/01/22 12:56:13;;;;;;;10.83;2.23;;;19.80;99.90;;;;;;5013543;28;20484;-81
2024/01/22 12:58:41;;;;;;;5.10;2.47;;;19.20;99.90;;;;;;5011690;28;20462;-81
2024/01/22 13:01:07;;;;;;;8.10;2.73;;;19.10;99.90;;;;;;5011247;28;20183;-82
2024/01/22 13:03:32;;;;;;;8.83;2.70;;;19.10;99.90;;;;;;5011924;28;20507;-81
2024/01/22 13:05:58;;;;;;;11.23;2.70;;;19.10;99.90;;;;;;5010949;28;20591;-80
2024/01/22 13:08:23;;;;;;;12.67;2.53;;;18.70;99.90;;;;;;5009370;28;20233;-82
2024/01/22 13:10:49;;;;;;;11.10;3.13;;;18.00;99.90;;;;;;5006713;28;20183;-83
2024/01/22 13:13:15;;;;;;;6.13;2.90;;;17.10;99.90;;;;;;5009728;28;20203;-83
2024/01/22 13:15:41;;;;;;;12.20;3.17;;;16.60;99.90;;;;;;5009856;28;20410;-81
2024/01/22 13:18:07;;;;;;;16.87;3.77;;;16.10;99.90;;;;;;5006897;28;20445;-81
2024/01/22 13:20:33;;;;;;;16.07;3.73;;;15.50;99.90;;;;;;5026669;28;20461;-81
2024/01/22 13:22:59;;;;;;;14.73;3.50;;;15.80;99.90;;;;;;5010576;28;20461;-79
2024/01/22 13:25:24;;;;;;;21.80;3.63;;;16.60;99.90;;;;;;5005622;28;20241;-82
2024/01/22 13:27:50;;;;;;;17.73;3.10;;;17.10;99.90;;;;;;5008052;28;20204;-82
2024/01/22 13:30:16;;;;;;;12.30;3.30;;;17.40;99.90;;;;;;5004701;28;20672;-81
2024/01/22 13:32:42;;;;;;;11.57;3.10;;;17.80;99.90;;;;;;5011046;28;20215;-82
2024/01/22 13:35:08;;;;;;;16.40;3.97;;;18.00;99.90;;;;;;5006661;28;20816;-81
2024/01/22 13:37:34;;;;;;;14.47;3.57;;;18.10;99.90;;;;;;5006988;28;20188;-81
2024/01/22 13:39:59;;;;;;;14.47;3.57;;;18.20;99.90;;;;;;5003080;28;20303;-81
2024/01/22 13:42:25;;;;;;;13.80;3.50;;;18.40;99.90;;;;;;5012866;28;20459;-82
2024/01/22 13:44:50;;;;;;;11.60;3.57;;;18.20;99.90;;;;;;5016218;28;20251;-84
2024/01/22 13:47:19;;;;;;;13.10;3.43;;;18.20;99.90;;;;;;5015330;28;20202;-81
2024/01/22 13:49:45;;;;;;;13.03;3.13;;;18.30;99.90;;;;;;5007676;28;20187;-83
2024/01/22 13:52:12;;;;;;;14.67;3.60;;;18.10;99.90;;;;;;5018733;28;20472;-85
2024/01/22 13:54:39;;;;;;;13.50;3.30;;;18.10;99.90;;;;;;5017104;28;20183;-82
2024/01/22 13:57:05;;;;;;;11.17;2.90;;;17.90;99.90;;;;;;5012546;28;20438;-82